sensor_id;sensor_type;location;lat;lon;timestamp;pressure;altitude;pressure_sealevel;temperature
77418;BMP280;66490;51.484;0.026;2023-07-24T00:00:02;100190.59;;;15.88
77418;BMP280;66490;51.484;0.026;2023-07-24T00:03:32;100202.22;;;16.05
77418;BMP280;66490;51.484;0.026;2023-07-24T00:06:31;100203.75;;;16.06
77418;BMP280;66490;51.484;0.026;2023-07-24T00:09:44;100205.69;;;16.05
77418;BMP280;66490;51.484;0.026;2023-07-24T00:12:42;100197.63;;;16.02
77418;BMP280;66490;51.484;0.026;2023-07-24T00:15:44;100191.25;;;16.08
77418;BMP280;66490;51.484;0.026;2023-07-24T00:18:56;100184.44;;;16.00
77418;BMP280;66490;51.484;0.026;2023-07-24T00:22:01;100224.88;;;16.31
77418;BMP280;66490;51.484;0.026;2023-07-24T00:24:49;100199.09;;;16.19
77418;BMP280;66490;51.484;0.026;2023-07-24T00:27:36;100178.16;;;16.03
77418;BMP280;66490;51.484;0.026;2023-07-24T00:30:20;100202.94;;;16.22
77418;BMP280;66490;51.484;0.026;2023-07-24T00:33:05;100199.38;;;16.25
77418;BMP280;66490;51.484;0.026;2023-07-24T00:35:49;100190.03;;;16.26
77418;BMP280;66490;51.484;0.026;2023-07-24T00:38:36;100190.56;;;16.33
77418;BMP280;66490;51.484;0.026;2023-07-24T00:41:21;100170.97;;;16.26
77418;BMP280;66490;51.484;0.026;2023-07-24T00:44:08;100176.72;;;16.28
77418;BMP280;66490;51.484;0.026;2023-07-24T00:46:55;100175.00;;;16.34
77418;BMP280;66490;51.484;0.026;2023-07-24T00:49:40;100179.38;;;16.44
77418;BMP280;66490;51.484;0.026;2023-07-24T00:52:25;100163.22;;;16.37
77418;BMP280;66490;51.484;0.026;2023-07-24T00:55:19;100159.78;;;16.49
77418;BMP280;66490;51.484;0.026;2023-07-24T00:58:06;100181.50;;;16.65
77418;BMP280;66490;51.484;0.026;2023-07-24T01:00:51;100191.09;;;16.82
77418;BMP280;66490;51.484;0.026;2023-07-24T01:03:35;100163.28;;;16.62
77418;BMP280;66490;51.484;0.026;2023-07-24T01:06:20;100173.50;;;16.58
77418;BMP280;66490;51.484;0.026;2023-07-24T01:09:10;100182.50;;;16.71
77418;BMP280;66490;51.484;0.026;2023-07-24T01:12:22;100148.78;;;16.52
77418;BMP280;66490;51.484;0.026;2023-07-24T01:15:22;100188.06;;;16.68
77418;BMP280;66490;51.484;0.026;2023-07-24T01:18:17;100165.03;;;16.56
77418;BMP280;66490;51.484;0.026;2023-07-24T01:21:17;100152.81;;;16.48
77418;BMP280;66490;51.484;0.026;2023-07-24T01:27:55;100187.06;;;16.74
77418;BMP280;66490;51.484;0.026;2023-07-24T01:30:40;100154.78;;;16.60
77418;BMP280;66490;51.484;0.026;2023-07-24T01:33:33;100165.50;;;16.67
77418;BMP280;66490;51.484;0.026;2023-07-24T01:36:30;100137.56;;;16.50
77418;BMP280;66490;51.484;0.026;2023-07-24T01:39:17;100156.88;;;16.69
77418;BMP280;66490;51.484;0.026;2023-07-24T01:42:02;100136.91;;;16.59
77418;BMP280;66490;51.484;0.026;2023-07-24T01:44:52;100128.22;;;16.51
77418;BMP280;66490;51.484;0.026;2023-07-24T01:47:38;100145.41;;;16.61
77418;BMP280;66490;51.484;0.026;2023-07-24T01:50:22;100137.78;;;16.56
77418;BMP280;66490;51.484;0.026;2023-07-24T01:53:07;100146.28;;;16.58
77418;BMP280;66490;51.484;0.026;2023-07-24T01:55:53;100153.06;;;16.66
77418;BMP280;66490;51.484;0.026;2023-07-24T01:58:40;100150.09;;;16.60
77418;BMP280;66490;51.484;0.026;2023-07-24T02:01:35;100157.63;;;16.69
77418;BMP280;66490;51.484;0.026;2023-07-24T02:04:22;100162.44;;;16.65
77418;BMP280;66490;51.484;0.026;2023-07-24T02:07:18;100156.31;;;16.61
77418;BMP280;66490;51.484;0.026;2023-07-24T02:10:05;100142.78;;;16.45
77418;BMP280;66490;51.484;0.026;2023-07-24T02:12:52;100153.84;;;16.38
77418;BMP280;66490;51.484;0.026;2023-07-24T02:15:43;100146.22;;;16.33
77418;BMP280;66490;51.484;0.026;2023-07-24T02:18:30;100136.06;;;16.20
77418;BMP280;66490;51.484;0.026;2023-07-24T02:21:30;100156.47;;;16.29
77418;BMP280;66490;51.484;0.026;2023-07-24T02:24:30;100139.84;;;16.10
77418;BMP280;66490;51.484;0.026;2023-07-24T02:27:30;100113.00;;;15.96
77418;BMP280;66490;51.484;0.026;2023-07-24T02:30:19;100112.34;;;15.92
77418;BMP280;66490;51.484;0.026;2023-07-24T02:33:06;100129.19;;;16.03
77418;BMP280;66490;51.484;0.026;2023-07-24T02:35:52;100125.03;;;16.11
77418;BMP280;66490;51.484;0.026;2023-07-24T02:38:36;100121.00;;;16.03
77418;BMP280;66490;51.484;0.026;2023-07-24T02:41:21;100112.09;;;16.03
77418;BMP280;66490;51.484;0.026;2023-07-24T02:44:08;100110.44;;;16.05
77418;BMP280;66490;51.484;0.026;2023-07-24T02:46:52;100112.84;;;16.03
77418;BMP280;66490;51.484;0.026;2023-07-24T02:49:37;100106.38;;;15.97
77418;BMP280;66490;51.484;0.026;2023-07-24T02:52:22;100138.88;;;16.17
77418;BMP280;66490;51.484;0.026;2023-07-24T02:55:07;100132.91;;;16.09
77418;BMP280;66490;51.484;0.026;2023-07-24T02:57:53;100128.31;;;16.06
77418;BMP280;66490;51.484;0.026;2023-07-24T03:00:37;100110.94;;;15.88
77418;BMP280;66490;51.484;0.026;2023-07-24T03:03:23;100104.91;;;15.80
77418;BMP280;66490;51.484;0.026;2023-07-24T03:06:09;100115.84;;;15.93
77418;BMP280;66490;51.484;0.026;2023-07-24T03:08:53;100145.28;;;16.10
77418;BMP280;66490;51.484;0.026;2023-07-24T03:11:38;100113.97;;;15.90
77418;BMP280;66490;51.484;0.026;2023-07-24T03:14:23;100108.03;;;15.78
77418;BMP280;66490;51.484;0.026;2023-07-24T03:17:07;100102.59;;;15.78
77418;BMP280;66490;51.484;0.026;2023-07-24T03:19:51;100111.19;;;15.77
77418;BMP280;66490;51.484;0.026;2023-07-24T03:22:39;100112.81;;;15.74
77418;BMP280;66490;51.484;0.026;2023-07-24T03:25:24;100095.72;;;15.74
77418;BMP280;66490;51.484;0.026;2023-07-24T03:28:09;100102.69;;;15.75
77418;BMP280;66490;51.484;0.026;2023-07-24T03:31:12;100151.78;;;16.00
77418;BMP280;66490;51.484;0.026;2023-07-24T03:33:56;100102.69;;;15.75
77418;BMP280;66490;51.484;0.026;2023-07-24T03:36:40;100126.38;;;15.91
77418;BMP280;66490;51.484;0.026;2023-07-24T03:39:26;100125.38;;;15.85
77418;BMP280;66490;51.484;0.026;2023-07-24T03:42:11;100125.31;;;15.88
77418;BMP280;66490;51.484;0.026;2023-07-24T03:44:58;100115.63;;;15.87
77418;BMP280;66490;51.484;0.026;2023-07-24T03:47:43;100108.91;;;15.75
77418;BMP280;66490;51.484;0.026;2023-07-24T03:50:29;100137.84;;;15.98
77418;BMP280;66490;51.484;0.026;2023-07-24T03:53:13;100115.81;;;15.80
77418;BMP280;66490;51.484;0.026;2023-07-24T03:56:01;100138.69;;;15.95
77418;BMP280;66490;51.484;0.026;2023-07-24T03:58:45;100119.53;;;15.86
77418;BMP280;66490;51.484;0.026;2023-07-24T04:01:30;100120.06;;;15.81
77418;BMP280;66490;51.484;0.026;2023-07-24T04:04:14;100112.75;;;15.62
77418;BMP280;66490;51.484;0.026;2023-07-24T04:06:59;100133.47;;;15.72
77418;BMP280;66490;51.484;0.026;2023-07-24T04:09:43;100117.00;;;15.63
77418;BMP280;66490;51.484;0.026;2023-07-24T04:12:29;100139.88;;;15.82
77418;BMP280;66490;51.484;0.026;2023-07-24T04:15:13;100134.00;;;15.96
77418;BMP280;66490;51.484;0.026;2023-07-24T04:17:57;100121.06;;;15.87
77418;BMP280;66490;51.484;0.026;2023-07-24T04:20:41;100131.72;;;15.94
77418;BMP280;66490;51.484;0.026;2023-07-24T04:23:35;100146.00;;;15.98
77418;BMP280;66490;51.484;0.026;2023-07-24T04:26:23;100115.03;;;15.79
77418;BMP280;66490;51.484;0.026;2023-07-24T04:29:07;100160.78;;;16.13
77418;BMP280;66490;51.484;0.026;2023-07-24T04:31:52;100146.34;;;16.00
77418;BMP280;66490;51.484;0.026;2023-07-24T04:34:36;100143.97;;;16.02
77418;BMP280;66490;51.484;0.026;2023-07-24T04:37:23;100143.97;;;16.02
77418;BMP280;66490;51.484;0.026;2023-07-24T04:40:09;100123.03;;;15.99
77418;BMP280;66490;51.484;0.026;2023-07-24T04:42:56;100137.47;;;16.12
77418;BMP280;66490;51.484;0.026;2023-07-24T04:45:40;100127.69;;;16.15
77418;BMP280;66490;51.484;0.026;2023-07-24T04:48:25;100136.50;;;16.19
77418;BMP280;66490;51.484;0.026;2023-07-24T04:51:09;100143.19;;;16.31
77418;BMP280;66490;51.484;0.026;2023-07-24T04:53:53;100169.25;;;16.44
77418;BMP280;66490;51.484;0.026;2023-07-24T04:56:38;100155.50;;;16.35
77418;BMP280;66490;51.484;0.026;2023-07-24T04:59:22;100146.69;;;16.31
77418;BMP280;66490;51.484;0.026;2023-07-24T05:02:08;100149.50;;;16.28
77418;BMP280;66490;51.484;0.026;2023-07-24T05:04:52;100133.88;;;16.15
77418;BMP280;66490;51.484;0.026;2023-07-24T05:07:36;100146.34;;;16.29
77418;BMP280;66490;51.484;0.026;2023-07-24T05:10:20;100146.34;;;16.29
77418;BMP280;66490;51.484;0.026;2023-07-24T05:13:05;100163.22;;;16.37
77418;BMP280;66490;51.484;0.026;2023-07-24T05:15:49;100160.50;;;16.37
77418;BMP280;66490;51.484;0.026;2023-07-24T05:18:33;100146.88;;;16.24
77418;BMP280;66490;51.484;0.026;2023-07-24T05:21:17;100180.38;;;16.50
77418;BMP280;66490;51.484;0.026;2023-07-24T05:24:02;100164.59;;;16.45
77418;BMP280;66490;51.484;0.026;2023-07-24T05:26:46;100139.72;;;16.30
77418;BMP280;66490;51.484;0.026;2023-07-24T05:29:30;100155.38;;;16.39
77418;BMP280;66490;51.484;0.026;2023-07-24T05:32:15;100178.44;;;16.63
77418;BMP280;66490;51.484;0.026;2023-07-24T05:34:59;100163.50;;;16.55
77418;BMP280;66490;51.484;0.026;2023-07-24T05:37:43;100161.09;;;16.57
77418;BMP280;66490;51.484;0.026;2023-07-24T05:40:28;100160.44;;;16.53
77418;BMP280;66490;51.484;0.026;2023-07-24T05:43:15;100148.91;;;16.62
77418;BMP280;66490;51.484;0.026;2023-07-24T05:45:59;100153.84;;;16.67
77418;BMP280;66490;51.484;0.026;2023-07-24T05:48:43;100158.41;;;16.82
77418;BMP280;66490;51.484;0.026;2023-07-24T05:51:27;100154.59;;;16.80
77418;BMP280;66490;51.484;0.026;2023-07-24T05:54:11;100157.97;;;16.84
77418;BMP280;66490;51.484;0.026;2023-07-24T05:56:56;100169.00;;;17.06
77418;BMP280;66490;51.484;0.026;2023-07-24T05:59:41;100140.78;;;16.87
77418;BMP280;66490;51.484;0.026;2023-07-24T06:02:25;100158.97;;;17.03
77418;BMP280;66490;51.484;0.026;2023-07-24T06:05:09;100143.38;;;17.03
77418;BMP280;66490;51.484;0.026;2023-07-24T06:07:53;100159.72;;;17.28
77418;BMP280;66490;51.484;0.026;2023-07-24T06:10:37;100145.63;;;17.30
77418;BMP280;66490;51.484;0.026;2023-07-24T06:13:21;100144.84;;;17.42
77418;BMP280;66490;51.484;0.026;2023-07-24T06:16:06;100180.91;;;17.71
77418;BMP280;66490;51.484;0.026;2023-07-24T06:18:53;100144.94;;;17.51
77418;BMP280;66490;51.484;0.026;2023-07-24T06:21:38;100154.72;;;17.61
77418;BMP280;66490;51.484;0.026;2023-07-24T06:24:25;100149.13;;;17.65
77418;BMP280;66490;51.484;0.026;2023-07-24T06:27:09;100181.56;;;17.97
77418;BMP280;66490;51.484;0.026;2023-07-24T06:29:53;100154.53;;;17.90
77418;BMP280;66490;51.484;0.026;2023-07-24T06:32:40;100145.38;;;18.06
77418;BMP280;66490;51.484;0.026;2023-07-24T06:35:25;100153.56;;;18.06
77418;BMP280;66490;51.484;0.026;2023-07-24T06:38:09;100168.72;;;18.07
77418;BMP280;66490;51.484;0.026;2023-07-24T06:40:54;100162.72;;;17.90
77418;BMP280;66490;51.484;0.026;2023-07-24T06:43:41;100182.59;;;17.91
77418;BMP280;66490;51.484;0.026;2023-07-24T06:46:26;100159.94;;;17.68
77418;BMP280;66490;51.484;0.026;2023-07-24T06:49:44;100166.53;;;17.58
77418;BMP280;66490;51.484;0.026;2023-07-24T06:52:38;100178.31;;;17.55
77418;BMP280;66490;51.484;0.026;2023-07-24T06:55:56;100179.72;;;17.60
77418;BMP280;66490;51.484;0.026;2023-07-24T06:58:48;100178.75;;;17.66
77418;BMP280;66490;51.484;0.026;2023-07-24T07:01:56;100190.91;;;17.74
77418;BMP280;66490;51.484;0.026;2023-07-24T07:05:03;100178.03;;;17.75
77418;BMP280;66490;51.484;0.026;2023-07-24T07:11:56;100173.00;;;17.73
77418;BMP280;66490;51.484;0.026;2023-07-24T07:14:53;100190.78;;;17.91
77418;BMP280;66490;51.484;0.026;2023-07-24T07:17:47;100206.88;;;18.10
77418;BMP280;66490;51.484;0.026;2023-07-24T07:20:38;100186.38;;;17.93
77418;BMP280;66490;51.484;0.026;2023-07-24T07:23:26;100170.91;;;17.90
77418;BMP280;66490;51.484;0.026;2023-07-24T07:26:26;100177.66;;;17.86
77418;BMP280;66490;51.484;0.026;2023-07-24T07:29:13;100205.13;;;18.04
77418;BMP280;66490;51.484;0.026;2023-07-24T07:31:57;100202.50;;;18.00
77418;BMP280;66490;51.484;0.026;2023-07-24T07:34:42;100202.78;;;18.15
77418;BMP280;66490;51.484;0.026;2023-07-24T07:37:29;100198.84;;;18.16
77418;BMP280;66490;51.484;0.026;2023-07-24T07:40:15;100207.63;;;18.11
77418;BMP280;66490;51.484;0.026;2023-07-24T07:43:11;100225.00;;;18.26
77418;BMP280;66490;51.484;0.026;2023-07-24T07:50:13;100180.00;;;18.09
77418;BMP280;66490;51.484;0.026;2023-07-24T07:53:03;100197.47;;;18.33
77418;BMP280;66490;51.484;0.026;2023-07-24T07:55:57;100194.16;;;18.38
77418;BMP280;66490;51.484;0.026;2023-07-24T07:59:16;100198.97;;;18.34
77418;BMP280;66490;51.484;0.026;2023-07-24T08:02:17;100216.63;;;18.42
77418;BMP280;66490;51.484;0.026;2023-07-24T08:05:56;100216.00;;;18.38
77418;BMP280;66490;51.484;0.026;2023-07-24T08:08:56;100206.78;;;18.23
77418;BMP280;66490;51.484;0.026;2023-07-24T08:11:43;100183.97;;;18.17
77418;BMP280;66490;51.484;0.026;2023-07-24T08:14:41;100181.75;;;18.03
77418;BMP280;66490;51.484;0.026;2023-07-24T08:18:02;100196.84;;;17.95
77418;BMP280;66490;51.484;0.026;2023-07-24T08:24:40;100212.13;;;17.70
77418;BMP280;66490;51.484;0.026;2023-07-24T08:27:24;100224.44;;;17.88
77418;BMP280;66490;51.484;0.026;2023-07-24T08:30:09;100196.38;;;17.74
77418;BMP280;66490;51.484;0.026;2023-07-24T08:32:58;100188.59;;;17.51
77418;BMP280;66490;51.484;0.026;2023-07-24T08:36:02;100220.44;;;17.54
77418;BMP280;66490;51.484;0.026;2023-07-24T08:38:47;100202.34;;;17.35
77418;BMP280;66490;51.484;0.026;2023-07-24T08:41:33;100238.22;;;17.21
77418;BMP280;66490;51.484;0.026;2023-07-24T08:44:20;100208.09;;;16.74
77418;BMP280;66490;51.484;0.026;2023-07-24T08:47:09;100234.91;;;16.75
77418;BMP280;66490;51.484;0.026;2023-07-24T08:49:54;100234.19;;;16.58
77418;BMP280;66490;51.484;0.026;2023-07-24T08:52:39;100233.13;;;16.56
77418;BMP280;66490;51.484;0.026;2023-07-24T08:55:24;100243.91;;;16.47
77418;BMP280;66490;51.484;0.026;2023-07-24T08:58:10;100240.34;;;16.34
77418;BMP280;66490;51.484;0.026;2023-07-24T09:00:56;100236.72;;;16.24
77418;BMP280;66490;51.484;0.026;2023-07-24T09:03:41;100234.97;;;16.01
77418;BMP280;66490;51.484;0.026;2023-07-24T09:06:26;100246.69;;;15.98
77418;BMP280;66490;51.484;0.026;2023-07-24T09:09:15;100240.84;;;15.84
77418;BMP280;66490;51.484;0.026;2023-07-24T09:12:02;100273.41;;;16.03
77418;BMP280;66490;51.484;0.026;2023-07-24T09:14:46;100252.22;;;15.78
77418;BMP280;66490;51.484;0.026;2023-07-24T09:17:32;100253.34;;;15.81
77418;BMP280;66490;51.484;0.026;2023-07-24T09:20:18;100254.03;;;15.85
77418;BMP280;66490;51.484;0.026;2023-07-24T09:23:02;100266.09;;;16.00
77418;BMP280;66490;51.484;0.026;2023-07-24T09:25:47;100250.78;;;15.90
77418;BMP280;66490;51.484;0.026;2023-07-24T09:28:34;100247.41;;;15.86
77418;BMP280;66490;51.484;0.026;2023-07-24T09:31:38;100241.44;;;15.91
77418;BMP280;66490;51.484;0.026;2023-07-24T09:34:25;100275.09;;;16.13
77418;BMP280;66490;51.484;0.026;2023-07-24T09:37:09;100270.94;;;16.09
77418;BMP280;66490;51.484;0.026;2023-07-24T09:39:54;100271.38;;;16.07
77418;BMP280;66490;51.484;0.026;2023-07-24T09:42:44;100303.50;;;16.29
77418;BMP280;66490;51.484;0.026;2023-07-24T09:45:28;100276.38;;;16.25
77418;BMP280;66490;51.484;0.026;2023-07-24T09:48:15;100289.53;;;16.27
77418;BMP280;66490;51.484;0.026;2023-07-24T09:50:59;100287.34;;;16.22
77418;BMP280;66490;51.484;0.026;2023-07-24T09:53:58;100284.00;;;16.30
77418;BMP280;66490;51.484;0.026;2023-07-24T09:56:47;100315.44;;;16.47
77418;BMP280;66490;51.484;0.026;2023-07-24T09:59:34;100284.97;;;16.24
77418;BMP280;66490;51.484;0.026;2023-07-24T10:02:19;100324.16;;;16.42
77418;BMP280;66490;51.484;0.026;2023-07-24T10:05:05;100327.13;;;16.48
77418;BMP280;66490;51.484;0.026;2023-07-24T10:07:50;100299.91;;;16.15
77418;BMP280;66490;51.484;0.026;2023-07-24T10:10:38;100332.25;;;16.30
77418;BMP280;66490;51.484;0.026;2023-07-24T10:13:26;100327.06;;;16.19
77418;BMP280;66490;51.484;0.026;2023-07-24T10:16:11;100343.22;;;16.26
77418;BMP280;66490;51.484;0.026;2023-07-24T10:18:55;100325.81;;;16.07
77418;BMP280;66490;51.484;0.026;2023-07-24T10:21:45;100348.75;;;16.23
77418;BMP280;66490;51.484;0.026;2023-07-24T10:24:30;100324.25;;;16.06
77418;BMP280;66490;51.484;0.026;2023-07-24T10:27:23;100343.03;;;16.33
77418;BMP280;66490;51.484;0.026;2023-07-24T10:30:07;100330.38;;;16.43
77418;BMP280;66490;51.484;0.026;2023-07-24T10:32:53;100360.91;;;16.79
77418;BMP280;66490;51.484;0.026;2023-07-24T10:35:46;100334.44;;;16.80
77418;BMP280;66490;51.484;0.026;2023-07-24T10:38:35;100334.81;;;16.94
77418;BMP280;66490;51.484;0.026;2023-07-24T10:41:42;100370.59;;;17.63
77418;BMP280;66490;51.484;0.026;2023-07-24T10:44:34;100359.59;;;17.67
77418;BMP280;66490;51.484;0.026;2023-07-24T10:47:25;100385.00;;;17.51
77418;BMP280;66490;51.484;0.026;2023-07-24T10:50:26;100345.91;;;17.29
77418;BMP280;66490;51.484;0.026;2023-07-24T10:53:21;100376.63;;;17.58
77418;BMP280;66490;51.484;0.026;2023-07-24T10:56:09;100350.50;;;17.32
77418;BMP280;66490;51.484;0.026;2023-07-24T11:02:19;100370.25;;;16.94
77418;BMP280;66490;51.484;0.026;2023-07-24T11:05:07;100376.69;;;16.88
77418;BMP280;66490;51.484;0.026;2023-07-24T11:07:51;100389.34;;;16.78
77418;BMP280;66490;51.484;0.026;2023-07-24T11:10:36;100389.75;;;16.64
77418;BMP280;66490;51.484;0.026;2023-07-24T11:13:25;100387.88;;;16.61
77418;BMP280;66490;51.484;0.026;2023-07-24T11:16:13;100437.06;;;16.70
77418;BMP280;66490;51.484;0.026;2023-07-24T11:19:04;100415.81;;;16.49
77418;BMP280;66490;51.484;0.026;2023-07-24T11:21:49;100405.50;;;16.40
77418;BMP280;66490;51.484;0.026;2023-07-24T11:24:47;100439.56;;;16.65
77418;BMP280;66490;51.484;0.026;2023-07-24T11:27:33;100419.41;;;16.91
77418;BMP280;66490;51.484;0.026;2023-07-24T11:30:54;100403.03;;;17.20
77418;BMP280;66490;51.484;0.026;2023-07-24T11:34:39;100409.41;;;17.29
77418;BMP280;66490;51.484;0.026;2023-07-24T11:38:23;100457.31;;;17.43
77418;BMP280;66490;51.484;0.026;2023-07-24T11:41:11;100447.84;;;17.19
77418;BMP280;66490;51.484;0.026;2023-07-24T11:43:57;100435.44;;;17.18
77418;BMP280;66490;51.484;0.026;2023-07-24T11:46:41;100447.34;;;17.24
77418;BMP280;66490;51.484;0.026;2023-07-24T11:49:29;100448.19;;;17.21
77418;BMP280;66490;51.484;0.026;2023-07-24T11:52:21;100434.81;;;16.97
77418;BMP280;66490;51.484;0.026;2023-07-24T11:55:10;100476.41;;;16.85
77418;BMP280;66490;51.484;0.026;2023-07-24T11:57:58;100463.81;;;16.43
77418;BMP280;66490;51.484;0.026;2023-07-24T12:00:42;100451.88;;;16.37
77418;BMP280;66490;51.484;0.026;2023-07-24T12:03:28;100474.53;;;16.50
77418;BMP280;66490;51.484;0.026;2023-07-24T12:06:16;100467.22;;;16.47
77418;BMP280;66490;51.484;0.026;2023-07-24T12:09:04;100441.69;;;16.41
77418;BMP280;66490;51.484;0.026;2023-07-24T12:11:51;100477.41;;;16.59
77418;BMP280;66490;51.484;0.026;2023-07-24T12:14:38;100496.84;;;16.77
77418;BMP280;66490;51.484;0.026;2023-07-24T12:17:23;100478.84;;;16.80
77418;BMP280;66490;51.484;0.026;2023-07-24T12:20:17;100485.78;;;16.84
77418;BMP280;66490;51.484;0.026;2023-07-24T12:23:10;100465.84;;;16.71
77418;BMP280;66490;51.484;0.026;2023-07-24T12:29:52;100487.38;;;16.82
77418;BMP280;66490;51.484;0.026;2023-07-24T12:32:50;100473.91;;;16.58
77418;BMP280;66490;51.484;0.026;2023-07-24T12:35:58;100513.38;;;16.70
77418;BMP280;66490;51.484;0.026;2023-07-24T12:39:27;100479.72;;;16.28
77418;BMP280;66490;51.484;0.026;2023-07-24T12:42:32;100473.13;;;16.09
77418;BMP280;66490;51.484;0.026;2023-07-24T12:45:36;100489.63;;;16.18
77418;BMP280;66490;51.484;0.026;2023-07-24T12:48:41;100478.22;;;16.07
77418;BMP280;66490;51.484;0.026;2023-07-24T12:51:25;100502.13;;;16.16
77418;BMP280;66490;51.484;0.026;2023-07-24T12:54:10;100517.44;;;16.46
77418;BMP280;66490;51.484;0.026;2023-07-24T12:56:54;100515.41;;;16.50
77418;BMP280;66490;51.484;0.026;2023-07-24T12:59:39;100517.97;;;16.57
77418;BMP280;66490;51.484;0.026;2023-07-24T13:02:42;100540.09;;;16.75
77418;BMP280;66490;51.484;0.026;2023-07-24T13:05:26;100538.91;;;16.76
77418;BMP280;66490;51.484;0.026;2023-07-24T13:08:11;100511.81;;;16.69
77418;BMP280;66490;51.484;0.026;2023-07-24T13:10:55;100516.44;;;16.72
77418;BMP280;66490;51.484;0.026;2023-07-24T13:13:39;100517.09;;;16.76
77418;BMP280;66490;51.484;0.026;2023-07-24T13:16:24;100551.44;;;17.06
77418;BMP280;66490;51.484;0.026;2023-07-24T13:19:11;100551.34;;;17.10
77418;BMP280;66490;51.484;0.026;2023-07-24T13:21:57;100551.50;;;17.03
77418;BMP280;66490;51.484;0.026;2023-07-24T13:24:46;100546.25;;;17.24
77418;BMP280;66490;51.484;0.026;2023-07-24T13:27:30;100526.31;;;16.98
77418;BMP280;66490;51.484;0.026;2023-07-24T13:30:14;100513.88;;;16.97
77418;BMP280;66490;51.484;0.026;2023-07-24T13:32:58;100531.94;;;17.08
77418;BMP280;66490;51.484;0.026;2023-07-24T13:35:48;100530.38;;;17.07
77418;BMP280;66490;51.484;0.026;2023-07-24T13:38:32;100517.44;;;16.94
77418;BMP280;66490;51.484;0.026;2023-07-24T13:41:21;100521.28;;;16.97
77418;BMP280;66490;51.484;0.026;2023-07-24T13:44:48;100562.56;;;17.57
77418;BMP280;66490;51.484;0.026;2023-07-24T13:47:39;100558.28;;;17.72
77418;BMP280;66490;51.484;0.026;2023-07-24T13:50:34;100508.66;;;17.48
77418;BMP280;66490;51.484;0.026;2023-07-24T14:00:24;100543.97;;;17.80
77418;BMP280;66490;51.484;0.026;2023-07-24T15:13:14;100588.16;;;18.17
77418;BMP280;66490;51.484;0.026;2023-07-24T15:16:36;100593.63;;;18.17
77418;BMP280;66490;51.484;0.026;2023-07-24T15:19:43;100595.81;;;18.22
77418;BMP280;66490;51.484;0.026;2023-07-24T15:22:34;100569.59;;;18.12
77418;BMP280;66490;51.484;0.026;2023-07-24T15:32:20;100578.06;;;18.30
77418;BMP280;66490;51.484;0.026;2023-07-24T15:35:26;100583.06;;;18.32
77418;BMP280;66490;51.484;0.026;2023-07-24T15:38:19;100563.28;;;18.15
77418;BMP280;66490;51.484;0.026;2023-07-24T15:44:15;100557.72;;;18.31
77418;BMP280;66490;51.484;0.026;2023-07-24T15:50:47;100549.38;;;18.22
77418;BMP280;66490;51.484;0.026;2023-07-24T15:53:33;100558.34;;;18.35
77418;BMP280;66490;51.484;0.026;2023-07-24T15:56:18;100565.69;;;18.38
77418;BMP280;66490;51.484;0.026;2023-07-24T15:59:04;100571.25;;;18.22
77418;BMP280;66490;51.484;0.026;2023-07-24T16:01:49;100549.94;;;17.92
77418;BMP280;66490;51.484;0.026;2023-07-24T16:04:38;100571.69;;;18.08
77418;BMP280;66490;51.484;0.026;2023-07-24T16:07:24;100548.22;;;17.69
77418;BMP280;66490;51.484;0.026;2023-07-24T16:10:08;100546.31;;;17.53
77418;BMP280;66490;51.484;0.026;2023-07-24T16:12:57;100580.28;;;17.65
77418;BMP280;66490;51.484;0.026;2023-07-24T16:15:42;100579.25;;;17.46
77418;BMP280;66490;51.484;0.026;2023-07-24T16:18:29;100585.91;;;17.29
77418;BMP280;66490;51.484;0.026;2023-07-24T16:21:15;100584.53;;;17.21
77418;BMP280;66490;51.484;0.026;2023-07-24T16:24:13;100597.69;;;17.10
77418;BMP280;66490;51.484;0.026;2023-07-24T16:27:04;100572.72;;;16.95
77418;BMP280;66490;51.484;0.026;2023-07-24T16:29:55;100576.06;;;16.86
77418;BMP280;66490;51.484;0.026;2023-07-24T16:32:44;100590.09;;;16.85
77418;BMP280;66490;51.484;0.026;2023-07-24T16:35:32;100563.19;;;16.71
77418;BMP280;66490;51.484;0.026;2023-07-24T16:38:16;100562.25;;;16.77
77418;BMP280;66490;51.484;0.026;2023-07-24T16:41:01;100609.94;;;17.02
77418;BMP280;66490;51.484;0.026;2023-07-24T16:43:53;100561.56;;;16.89
77418;BMP280;66490;51.484;0.026;2023-07-24T16:46:40;100581.16;;;17.00
77418;BMP280;66490;51.484;0.026;2023-07-24T16:49:30;100573.13;;;17.10
77418;BMP280;66490;51.484;0.026;2023-07-24T16:52:15;100565.41;;;17.08
77418;BMP280;66490;51.484;0.026;2023-07-24T16:55:03;100571.44;;;17.16
77418;BMP280;66490;51.484;0.026;2023-07-24T16:57:47;100575.28;;;17.18
77418;BMP280;66490;51.484;0.026;2023-07-24T17:00:31;100548.34;;;17.04
77418;BMP280;66490;51.484;0.026;2023-07-24T17:03:17;100555.34;;;17.05
77418;BMP280;66490;51.484;0.026;2023-07-24T17:06:02;100578.97;;;17.24
77418;BMP280;66490;51.484;0.026;2023-07-24T17:08:46;100576.13;;;17.15
77418;BMP280;66490;51.484;0.026;2023-07-24T17:11:31;100590.16;;;17.30
77418;BMP280;66490;51.484;0.026;2023-07-24T17:14:16;100582.16;;;17.23
77418;BMP280;66490;51.484;0.026;2023-07-24T17:17:01;100592.72;;;17.37
77418;BMP280;66490;51.484;0.026;2023-07-24T17:19:45;100548.00;;;17.18
77418;BMP280;66490;51.484;0.026;2023-07-24T17:22:30;100573.94;;;17.39
77418;BMP280;66490;51.484;0.026;2023-07-24T17:25:14;100573.78;;;17.46
77418;BMP280;66490;51.484;0.026;2023-07-24T17:27:59;100542.25;;;17.29
77418;BMP280;66490;51.484;0.026;2023-07-24T17:30:44;100566.09;;;17.41
77418;BMP280;66490;51.484;0.026;2023-07-24T17:33:35;100593.91;;;17.52
77418;BMP280;66490;51.484;0.026;2023-07-24T17:36:39;100553.78;;;17.20
77418;BMP280;66490;51.484;0.026;2023-07-24T17:39:23;100579.50;;;17.35
77418;BMP280;66490;51.484;0.026;2023-07-24T17:42:12;100569.22;;;17.27
77418;BMP280;66490;51.484;0.026;2023-07-24T17:44:57;100555.84;;;17.16
77418;BMP280;66490;51.484;0.026;2023-07-24T17:47:41;100571.84;;;17.30
77418;BMP280;66490;51.484;0.026;2023-07-24T17:50:26;100575.47;;;17.40
77418;BMP280;66490;51.484;0.026;2023-07-24T17:53:10;100607.00;;;17.57
77418;BMP280;66490;51.484;0.026;2023-07-24T17:55:56;100567.34;;;17.24